sensor_id;sensor_type;location;lat;lon;timestamp;temperature;humidity
78463;SHT31;67756;51.982;5.648;2023-09-08T00:00:48;24.7;54.1
78463;SHT31;67756;51.982;5.648;2023-09-08T00:03:16;24.7;54.5
78463;SHT31;67756;51.982;5.648;2023-09-08T00:05:45;24.7;54.2
78463;SHT31;67756;51.982;5.648;2023-09-08T00:08:13;24.7;54.2
78463;SHT31;67756;51.982;5.648;2023-09-08T00:10:42;24.7;54.2
78463;SHT31;67756;51.982;5.648;2023-09-08T00:13:10;24.6;54.2
78463;SHT31;67756;51.982;5.648;2023-09-08T00:15:39;24.6;54.5
78463;SHT31;67756;51.982;5.648;2023-09-08T00:18:07;24.6;54.6
78463;SHT31;67756;51.982;5.648;2023-09-08T00:20:36;24.6;54.3
78463;SHT31;67756;51.982;5.648;2023-09-08T00:23:07;24.5;54.7
78463;SHT31;67756;51.982;5.648;2023-09-08T00:25:35;24.5;54.7
78463;SHT31;67756;51.982;5.648;2023-09-08T00:28:04;24.5;55.0
78463;SHT31;67756;51.982;5.648;2023-09-08T00:30:33;24.4;55.0
78463;SHT31;67756;51.982;5.648;2023-09-08T00:33:01;24.4;54.9
78463;SHT31;67756;51.982;5.648;2023-09-08T00:35:32;24.4;54.9
78463;SHT31;67756;51.982;5.648;2023-09-08T00:38:00;24.4;54.9
78463;SHT31;67756;51.982;5.648;2023-09-08T00:40:29;24.3;54.7
78463;SHT31;67756;51.982;5.648;2023-09-08T00:42:59;24.3;55.1
78463;SHT31;67756;51.982;5.648;2023-09-08T00:45:29;24.3;55.0
78463;SHT31;67756;51.982;5.648;2023-09-08T00:47:58;24.2;55.5
78463;SHT31;67756;51.982;5.648;2023-09-08T00:50:27;24.2;55.9
78463;SHT31;67756;51.982;5.648;2023-09-08T00:52:55;24.2;56.0
78463;SHT31;67756;51.982;5.648;2023-09-08T00:55:24;24.2;56.6
78463;SHT31;67756;51.982;5.648;2023-09-08T00:57:53;24.2;56.0
78463;SHT31;67756;51.982;5.648;2023-09-08T01:00:22;24.2;56.2
78463;SHT31;67756;51.982;5.648;2023-09-08T01:02:50;24.2;55.8
78463;SHT31;67756;51.982;5.648;2023-09-08T01:05:20;24.1;55.6
78463;SHT31;67756;51.982;5.648;2023-09-08T01:07:51;24.1;55.6
78463;SHT31;67756;51.982;5.648;2023-09-08T01:10:23;24.1;55.5
78463;SHT31;67756;51.982;5.648;2023-09-08T01:12:52;24.0;55.5
78463;SHT31;67756;51.982;5.648;2023-09-08T01:15:20;24.0;55.8
78463;SHT31;67756;51.982;5.648;2023-09-08T01:17:49;24.0;55.9
78463;SHT31;67756;51.982;5.648;2023-09-08T01:20:22;23.9;55.8
78463;SHT31;67756;51.982;5.648;2023-09-08T01:23:15;23.9;56.2
78463;SHT31;67756;51.982;5.648;2023-09-08T01:25:52;23.9;56.5
78463;SHT31;67756;51.982;5.648;2023-09-08T01:28:22;23.9;56.3
78463;SHT31;67756;51.982;5.648;2023-09-08T01:30:54;23.9;56.5
78463;SHT31;67756;51.982;5.648;2023-09-08T01:33:23;23.9;56.2
78463;SHT31;67756;51.982;5.648;2023-09-08T01:35:52;23.9;56.5
78463;SHT31;67756;51.982;5.648;2023-09-08T01:38:23;23.9;56.5
78463;SHT31;67756;51.982;5.648;2023-09-08T01:40:52;23.9;56.0
78463;SHT31;67756;51.982;5.648;2023-09-08T01:43:20;23.8;56.1
78463;SHT31;67756;51.982;5.648;2023-09-08T01:45:49;23.8;56.0
78463;SHT31;67756;51.982;5.648;2023-09-08T01:48:17;23.8;56.1
78463;SHT31;67756;51.982;5.648;2023-09-08T01:50:46;23.8;56.6
78463;SHT31;67756;51.982;5.648;2023-09-08T01:53:15;23.7;56.8
78463;SHT31;67756;51.982;5.648;2023-09-08T01:55:44;23.7;56.8
78463;SHT31;67756;51.982;5.648;2023-09-08T01:58:12;23.7;57.0
78463;SHT31;67756;51.982;5.648;2023-09-08T02:00:41;23.7;56.9
78463;SHT31;67756;51.982;5.648;2023-09-08T02:03:09;23.7;57.1
78463;SHT31;67756;51.982;5.648;2023-09-08T02:05:38;23.7;56.8
78463;SHT31;67756;51.982;5.648;2023-09-08T02:08:08;23.6;57.0
78463;SHT31;67756;51.982;5.648;2023-09-08T02:10:39;23.6;56.8
78463;SHT31;67756;51.982;5.648;2023-09-08T02:13:07;23.6;56.5
78463;SHT31;67756;51.982;5.648;2023-09-08T02:15:36;23.6;57.0
78463;SHT31;67756;51.982;5.648;2023-09-08T02:18:06;23.5;56.9
78463;SHT31;67756;51.982;5.648;2023-09-08T02:20:35;23.5;56.8
78463;SHT31;67756;51.982;5.648;2023-09-08T02:23:06;23.5;56.9
78463;SHT31;67756;51.982;5.648;2023-09-08T02:25:35;23.5;56.7
78463;SHT31;67756;51.982;5.648;2023-09-08T02:28:06;23.4;56.9
78463;SHT31;67756;51.982;5.648;2023-09-08T02:30:34;23.4;56.7
78463;SHT31;67756;51.982;5.648;2023-09-08T02:33:03;23.4;56.7
78463;SHT31;67756;51.982;5.648;2023-09-08T02:35:38;23.3;57.0
78463;SHT31;67756;51.982;5.648;2023-09-08T02:38:07;23.3;56.8
78463;SHT31;67756;51.982;5.648;2023-09-08T02:40:36;23.3;57.0
78463;SHT31;67756;51.982;5.648;2023-09-08T02:43:04;23.2;57.0
78463;SHT31;67756;51.982;5.648;2023-09-08T02:45:33;23.2;57.9
78463;SHT31;67756;51.982;5.648;2023-09-08T02:48:01;23.2;57.7
78463;SHT31;67756;51.982;5.648;2023-09-08T02:50:30;23.2;58.1
78463;SHT31;67756;51.982;5.648;2023-09-08T02:52:58;23.2;58.3
78463;SHT31;67756;51.982;5.648;2023-09-08T02:55:27;23.2;58.7
78463;SHT31;67756;51.982;5.648;2023-09-08T02:57:56;23.2;58.4
78463;SHT31;67756;51.982;5.648;2023-09-08T03:00:25;23.2;58.0
78463;SHT31;67756;51.982;5.648;2023-09-08T03:02:53;23.2;58.0
78463;SHT31;67756;51.982;5.648;2023-09-08T03:05:22;23.2;57.9
78463;SHT31;67756;51.982;5.648;2023-09-08T03:07:51;23.1;58.1
78463;SHT31;67756;51.982;5.648;2023-09-08T03:10:19;23.1;58.4
78463;SHT31;67756;51.982;5.648;2023-09-08T03:12:48;23.1;58.3
78463;SHT31;67756;51.982;5.648;2023-09-08T03:15:17;23.1;58.5
78463;SHT31;67756;51.982;5.648;2023-09-08T03:17:45;23.1;58.4
78463;SHT31;67756;51.982;5.648;2023-09-08T03:20:14;23.1;58.5
78463;SHT31;67756;51.982;5.648;2023-09-08T03:22:42;23.1;58.2
78463;SHT31;67756;51.982;5.648;2023-09-08T03:25:13;23.0;58.4
78463;SHT31;67756;51.982;5.648;2023-09-08T03:27:41;23.0;58.5
78463;SHT31;67756;51.982;5.648;2023-09-08T03:30:13;23.0;57.8
78463;SHT31;67756;51.982;5.648;2023-09-08T03:32:41;22.9;58.5
78463;SHT31;67756;51.982;5.648;2023-09-08T03:35:10;22.9;58.2
78463;SHT31;67756;51.982;5.648;2023-09-08T03:37:38;22.9;58.5
78463;SHT31;67756;51.982;5.648;2023-09-08T03:40:08;22.9;58.3
78463;SHT31;67756;51.982;5.648;2023-09-08T03:42:37;22.8;58.3
78463;SHT31;67756;51.982;5.648;2023-09-08T03:45:08;22.8;58.5
78463;SHT31;67756;51.982;5.648;2023-09-08T03:47:37;22.8;59.0
78463;SHT31;67756;51.982;5.648;2023-09-08T03:50:06;22.7;59.4
78463;SHT31;67756;51.982;5.648;2023-09-08T03:52:34;22.7;59.1
78463;SHT31;67756;51.982;5.648;2023-09-08T03:55:03;22.7;59.3
78463;SHT31;67756;51.982;5.648;2023-09-08T03:57:32;22.7;59.3
78463;SHT31;67756;51.982;5.648;2023-09-08T04:00:00;22.6;60.0
78463;SHT31;67756;51.982;5.648;2023-09-08T04:02:30;22.6;59.9
78463;SHT31;67756;51.982;5.648;2023-09-08T04:04:59;22.6;59.8
78463;SHT31;67756;51.982;5.648;2023-09-08T04:07:29;22.6;60.0
78463;SHT31;67756;51.982;5.648;2023-09-08T04:09:58;22.6;59.2
78463;SHT31;67756;51.982;5.648;2023-09-08T04:12:27;22.5;59.0
78463;SHT31;67756;51.982;5.648;2023-09-08T04:14:55;22.5;59.5
78463;SHT31;67756;51.982;5.648;2023-09-08T04:17:24;22.5;59.5
78463;SHT31;67756;51.982;5.648;2023-09-08T04:19:52;22.5;59.6
78463;SHT31;67756;51.982;5.648;2023-09-08T04:22:21;22.5;59.8
78463;SHT31;67756;51.982;5.648;2023-09-08T04:24:49;22.4;60.0
78463;SHT31;67756;51.982;5.648;2023-09-08T04:27:19;22.4;60.2
78463;SHT31;67756;51.982;5.648;2023-09-08T04:29:48;22.4;60.2
78463;SHT31;67756;51.982;5.648;2023-09-08T04:32:18;22.4;59.9
78463;SHT31;67756;51.982;5.648;2023-09-08T04:34:47;22.3;60.2
78463;SHT31;67756;51.982;5.648;2023-09-08T04:37:15;22.3;59.8
78463;SHT31;67756;51.982;5.648;2023-09-08T04:39:46;22.3;60.1
78463;SHT31;67756;51.982;5.648;2023-09-08T04:42:14;22.3;60.6
78463;SHT31;67756;51.982;5.648;2023-09-08T04:44:43;22.2;60.6
78463;SHT31;67756;51.982;5.648;2023-09-08T04:47:14;22.2;60.3
78463;SHT31;67756;51.982;5.648;2023-09-08T04:49:42;22.2;59.6
78463;SHT31;67756;51.982;5.648;2023-09-08T04:52:11;22.2;59.9
78463;SHT31;67756;51.982;5.648;2023-09-08T04:54:40;22.2;60.0
78463;SHT31;67756;51.982;5.648;2023-09-08T04:57:09;22.1;60.0
78463;SHT31;67756;51.982;5.648;2023-09-08T04:59:37;22.1;60.2
78463;SHT31;67756;51.982;5.648;2023-09-08T05:02:06;22.1;60.3
78463;SHT31;67756;51.982;5.648;2023-09-08T05:04:34;22.1;60.2
78463;SHT31;67756;51.982;5.648;2023-09-08T05:07:03;22.0;60.3
78463;SHT31;67756;51.982;5.648;2023-09-08T05:09:32;22.0;60.5
78463;SHT31;67756;51.982;5.648;2023-09-08T05:12:01;22.0;60.5
78463;SHT31;67756;51.982;5.648;2023-09-08T05:14:30;22.0;61.0
78463;SHT31;67756;51.982;5.648;2023-09-08T05:16:59;22.0;61.0
78463;SHT31;67756;51.982;5.648;2023-09-08T05:19:27;22.0;61.0
78463;SHT31;67756;51.982;5.648;2023-09-08T05:21:56;22.0;60.9
78463;SHT31;67756;51.982;5.648;2023-09-08T05:24:27;22.0;60.8
78463;SHT31;67756;51.982;5.648;2023-09-08T05:26:55;22.0;61.2
78463;SHT31;67756;51.982;5.648;2023-09-08T05:29:24;22.0;60.9
78463;SHT31;67756;51.982;5.648;2023-09-08T05:31:53;22.0;61.7
78463;SHT31;67756;51.982;5.648;2023-09-08T05:34:22;22.0;61.2
78463;SHT31;67756;51.982;5.648;2023-09-08T05:36:50;22.0;61.3
78463;SHT31;67756;51.982;5.648;2023-09-08T05:39:19;22.0;61.9
78463;SHT31;67756;51.982;5.648;2023-09-08T05:41:47;22.0;61.1
78463;SHT31;67756;51.982;5.648;2023-09-08T05:44:16;22.1;62.0
78463;SHT31;67756;51.982;5.648;2023-09-08T05:46:44;22.1;61.8
78463;SHT31;67756;51.982;5.648;2023-09-08T05:49:13;22.1;61.3
78463;SHT31;67756;51.982;5.648;2023-09-08T05:51:44;22.1;61.4
78463;SHT31;67756;51.982;5.648;2023-09-08T05:54:13;22.1;61.4
78463;SHT31;67756;51.982;5.648;2023-09-08T05:56:41;22.1;62.0
78463;SHT31;67756;51.982;5.648;2023-09-08T05:59:10;22.2;60.8
78463;SHT31;67756;51.982;5.648;2023-09-08T06:01:38;22.2;61.3
78463;SHT31;67756;51.982;5.648;2023-09-08T06:04:07;22.2;61.0
78463;SHT31;67756;51.982;5.648;2023-09-08T06:06:36;22.2;60.4
78463;SHT31;67756;51.982;5.648;2023-09-08T06:09:05;22.3;60.7
78463;SHT31;67756;51.982;5.648;2023-09-08T06:11:34;22.3;60.6
78463;SHT31;67756;51.982;5.648;2023-09-08T06:14:02;22.3;60.9
78463;SHT31;67756;51.982;5.648;2023-09-08T06:16:31;22.3;60.3
78463;SHT31;67756;51.982;5.648;2023-09-08T06:18:59;22.4;60.2
78463;SHT31;67756;51.982;5.648;2023-09-08T06:21:29;22.4;60.1
78463;SHT31;67756;51.982;5.648;2023-09-08T06:23:58;22.4;60.4
78463;SHT31;67756;51.982;5.648;2023-09-08T06:26:26;22.4;60.2
78463;SHT31;67756;51.982;5.648;2023-09-08T06:28:55;22.4;60.0
78463;SHT31;67756;51.982;5.648;2023-09-08T06:31:23;22.5;59.9
78463;SHT31;67756;51.982;5.648;2023-09-08T06:33:51;22.5;59.8
78463;SHT31;67756;51.982;5.648;2023-09-08T06:36:20;22.5;60.8
78463;SHT31;67756;51.982;5.648;2023-09-08T06:38:48;22.5;59.7
78463;SHT31;67756;51.982;5.648;2023-09-08T06:41:17;22.5;60.0
78463;SHT31;67756;51.982;5.648;2023-09-08T06:43:46;22.5;59.8
78463;SHT31;67756;51.982;5.648;2023-09-08T06:46:14;22.5;59.6
78463;SHT31;67756;51.982;5.648;2023-09-08T06:48:43;22.6;60.0
78463;SHT31;67756;51.982;5.648;2023-09-08T06:51:12;22.6;59.8
78463;SHT31;67756;51.982;5.648;2023-09-08T06:53:42;22.6;59.7
78463;SHT31;67756;51.982;5.648;2023-09-08T06:56:11;22.6;59.4
78463;SHT31;67756;51.982;5.648;2023-09-08T06:58:40;22.6;59.7
78463;SHT31;67756;51.982;5.648;2023-09-08T07:01:08;22.6;59.8
78463;SHT31;67756;51.982;5.648;2023-09-08T07:03:36;22.6;60.0
78463;SHT31;67756;51.982;5.648;2023-09-08T07:06:05;22.7;60.3
78463;SHT31;67756;51.982;5.648;2023-09-08T07:08:34;22.7;60.1
78463;SHT31;67756;51.982;5.648;2023-09-08T07:11:02;22.7;60.0
78463;SHT31;67756;51.982;5.648;2023-09-08T07:13:31;22.8;59.9
78463;SHT31;67756;51.982;5.648;2023-09-08T07:16:00;22.8;60.0
78463;SHT31;67756;51.982;5.648;2023-09-08T07:18:28;22.8;60.1
78463;SHT31;67756;51.982;5.648;2023-09-08T07:20:59;22.8;59.9
78463;SHT31;67756;51.982;5.648;2023-09-08T07:23:27;22.8;60.0
78463;SHT31;67756;51.982;5.648;2023-09-08T07:25:56;22.8;60.3
78463;SHT31;67756;51.982;5.648;2023-09-08T07:28:24;22.8;60.4
78463;SHT31;67756;51.982;5.648;2023-09-08T07:30:53;22.9;60.2
78463;SHT31;67756;51.982;5.648;2023-09-08T07:33:23;22.9;60.1
78463;SHT31;67756;51.982;5.648;2023-09-08T07:35:54;22.9;60.6
78463;SHT31;67756;51.982;5.648;2023-09-08T07:38:22;22.9;60.7
78463;SHT31;67756;51.982;5.648;2023-09-08T07:40:51;22.9;60.8
78463;SHT31;67756;51.982;5.648;2023-09-08T07:43:22;23.0;61.0
78463;SHT31;67756;51.982;5.648;2023-09-08T07:45:50;23.0;61.5
78463;SHT31;67756;51.982;5.648;2023-09-08T07:48:19;23.0;61.7
78463;SHT31;67756;51.982;5.648;2023-09-08T07:50:47;23.1;61.3
78463;SHT31;67756;51.982;5.648;2023-09-08T07:53:16;23.1;61.4
78463;SHT31;67756;51.982;5.648;2023-09-08T07:55:45;23.2;61.5
78463;SHT31;67756;51.982;5.648;2023-09-08T07:58:13;23.3;61.8
78463;SHT31;67756;51.982;5.648;2023-09-08T08:00:42;23.3;62.2
78463;SHT31;67756;51.982;5.648;2023-09-08T08:03:12;23.4;61.6
78463;SHT31;67756;51.982;5.648;2023-09-08T08:05:41;23.4;61.2
78463;SHT31;67756;51.982;5.648;2023-09-08T08:08:09;23.5;60.7
78463;SHT31;67756;51.982;5.648;2023-09-08T08:10:40;23.6;61.4
78463;SHT31;67756;51.982;5.648;2023-09-08T08:13:09;23.6;61.2
78463;SHT31;67756;51.982;5.648;2023-09-08T08:15:38;23.7;61.1
78463;SHT31;67756;51.982;5.648;2023-09-08T08:18:10;23.7;61.2
78463;SHT31;67756;51.982;5.648;2023-09-08T08:20:39;23.8;60.8
78463;SHT31;67756;51.982;5.648;2023-09-08T08:23:08;23.8;61.6
78463;SHT31;67756;51.982;5.648;2023-09-08T08:25:38;23.9;60.7
78463;SHT31;67756;51.982;5.648;2023-09-08T08:28:09;24.0;61.1
78463;SHT31;67756;51.982;5.648;2023-09-08T08:30:40;24.0;61.1
78463;SHT31;67756;51.982;5.648;2023-09-08T08:33:09;24.1;61.3
78463;SHT31;67756;51.982;5.648;2023-09-08T08:35:37;24.3;61.4
78463;SHT31;67756;51.982;5.648;2023-09-08T08:38:06;24.4;60.7
78463;SHT31;67756;51.982;5.648;2023-09-08T08:40:38;24.5;60.3
78463;SHT31;67756;51.982;5.648;2023-09-08T08:43:07;24.6;60.5
78463;SHT31;67756;51.982;5.648;2023-09-08T08:45:37;24.7;59.7
78463;SHT31;67756;51.982;5.648;2023-09-08T08:48:09;24.8;59.7
78463;SHT31;67756;51.982;5.648;2023-09-08T08:50:42;25.0;59.0
78463;SHT31;67756;51.982;5.648;2023-09-08T08:53:12;25.1;59.1
78463;SHT31;67756;51.982;5.648;2023-09-08T08:55:41;25.3;59.5
78463;SHT31;67756;51.982;5.648;2023-09-08T08:58:10;25.3;58.8
78463;SHT31;67756;51.982;5.648;2023-09-08T09:00:42;25.4;57.9
78463;SHT31;67756;51.982;5.648;2023-09-08T09:03:13;25.5;57.9
78463;SHT31;67756;51.982;5.648;2023-09-08T09:05:44;25.6;57.8
78463;SHT31;67756;51.982;5.648;2023-09-08T09:08:13;25.7;57.5
78463;SHT31;67756;51.982;5.648;2023-09-08T09:10:43;25.8;57.3
78463;SHT31;67756;51.982;5.648;2023-09-08T09:13:11;25.9;57.2
78463;SHT31;67756;51.982;5.648;2023-09-08T09:15:40;26.0;58.4
78463;SHT31;67756;51.982;5.648;2023-09-08T09:18:09;26.1;57.3
78463;SHT31;67756;51.982;5.648;2023-09-08T09:20:37;26.1;57.7
78463;SHT31;67756;51.982;5.648;2023-09-08T09:23:07;26.2;57.9
78463;SHT31;67756;51.982;5.648;2023-09-08T09:25:38;26.3;57.7
78463;SHT31;67756;51.982;5.648;2023-09-08T09:28:09;26.4;56.1
78463;SHT31;67756;51.982;5.648;2023-09-08T09:30:51;26.5;55.5
78463;SHT31;67756;51.982;5.648;2023-09-08T09:33:21;26.6;56.3
78463;SHT31;67756;51.982;5.648;2023-09-08T09:35:52;26.7;55.9
78463;SHT31;67756;51.982;5.648;2023-09-08T09:38:22;26.8;56.4
78463;SHT31;67756;51.982;5.648;2023-09-08T09:40:50;26.9;56.7
78463;SHT31;67756;51.982;5.648;2023-09-08T09:43:22;27.0;56.0
78463;SHT31;67756;51.982;5.648;2023-09-08T09:45:51;27.1;55.3
78463;SHT31;67756;51.982;5.648;2023-09-08T09:48:21;27.2;54.9
78463;SHT31;67756;51.982;5.648;2023-09-08T09:50:50;27.2;55.4
78463;SHT31;67756;51.982;5.648;2023-09-08T09:53:22;27.3;55.5
78463;SHT31;67756;51.982;5.648;2023-09-08T09:55:51;27.3;54.8
78463;SHT31;67756;51.982;5.648;2023-09-08T09:58:20;27.3;54.5
78463;SHT31;67756;51.982;5.648;2023-09-08T10:00:50;27.4;53.7
78463;SHT31;67756;51.982;5.648;2023-09-08T10:03:22;27.4;54.2
78463;SHT31;67756;51.982;5.648;2023-09-08T10:05:52;27.4;55.2
78463;SHT31;67756;51.982;5.648;2023-09-08T10:08:21;27.4;54.9
78463;SHT31;67756;51.982;5.648;2023-09-08T10:10:50;27.4;54.6
78463;SHT31;67756;51.982;5.648;2023-09-08T10:13:27;27.4;53.6
78463;SHT31;67756;51.982;5.648;2023-09-08T10:15:58;27.4;53.2
78463;SHT31;67756;51.982;5.648;2023-09-08T10:18:31;27.4;53.8
78463;SHT31;67756;51.982;5.648;2023-09-08T10:21:04;27.5;52.9
78463;SHT31;67756;51.982;5.648;2023-09-08T10:23:37;27.5;53.3
78463;SHT31;67756;51.982;5.648;2023-09-08T10:26:10;27.5;53.9
78463;SHT31;67756;51.982;5.648;2023-09-08T10:28:39;27.6;54.4
78463;SHT31;67756;51.982;5.648;2023-09-08T10:31:09;27.6;53.5
78463;SHT31;67756;51.982;5.648;2023-09-08T10:33:38;27.7;52.9
78463;SHT31;67756;51.982;5.648;2023-09-08T10:36:09;27.7;53.1
78463;SHT31;67756;51.982;5.648;2023-09-08T10:38:39;27.8;52.7
78463;SHT31;67756;51.982;5.648;2023-09-08T10:41:29;27.9;52.1
78463;SHT31;67756;51.982;5.648;2023-09-08T10:44:02;27.9;52.0
78463;SHT31;67756;51.982;5.648;2023-09-08T10:46:32;28.0;53.2
78463;SHT31;67756;51.982;5.648;2023-09-08T10:49:05;28.0;53.2
78463;SHT31;67756;51.982;5.648;2023-09-08T10:51:36;28.1;53.7
78463;SHT31;67756;51.982;5.648;2023-09-08T10:54:06;28.1;52.8
78463;SHT31;67756;51.982;5.648;2023-09-08T10:56:55;28.2;52.6
78463;SHT31;67756;51.982;5.648;2023-09-08T10:59:34;28.2;52.1
78463;SHT31;67756;51.982;5.648;2023-09-08T11:02:05;28.3;52.6
78463;SHT31;67756;51.982;5.648;2023-09-08T11:04:34;28.4;53.4
78463;SHT31;67756;51.982;5.648;2023-09-08T11:07:04;28.4;52.7
78463;SHT31;67756;51.982;5.648;2023-09-08T11:09:37;28.5;52.7
78463;SHT31;67756;51.982;5.648;2023-09-08T11:12:07;28.6;52.1
78463;SHT31;67756;51.982;5.648;2023-09-08T11:14:36;28.7;51.0
78463;SHT31;67756;51.982;5.648;2023-09-08T11:17:05;28.8;51.1
78463;SHT31;67756;51.982;5.648;2023-09-08T11:19:44;28.9;51.8
78463;SHT31;67756;51.982;5.648;2023-09-08T11:22:13;29.0;51.7
78463;SHT31;67756;51.982;5.648;2023-09-08T11:24:44;29.3;51.5
78463;SHT31;67756;51.982;5.648;2023-09-08T11:27:15;29.6;50.6
78463;SHT31;67756;51.982;5.648;2023-09-08T11:29:44;29.9;49.8
78463;SHT31;67756;51.982;5.648;2023-09-08T11:32:13;30.2;48.0
78463;SHT31;67756;51.982;5.648;2023-09-08T11:34:42;30.5;48.1
78463;SHT31;67756;51.982;5.648;2023-09-08T11:37:12;30.8;48.2
78463;SHT31;67756;51.982;5.648;2023-09-08T11:39:43;31.0;47.2
78463;SHT31;67756;51.982;5.648;2023-09-08T11:42:14;31.3;47.2
78463;SHT31;67756;51.982;5.648;2023-09-08T11:44:43;31.5;46.2
78463;SHT31;67756;51.982;5.648;2023-09-08T11:47:12;31.6;45.7
78463;SHT31;67756;51.982;5.648;2023-09-08T11:49:42;31.8;44.9
78463;SHT31;67756;51.982;5.648;2023-09-08T11:52:13;32.0;44.5
78463;SHT31;67756;51.982;5.648;2023-09-08T11:54:42;32.1;44.8
78463;SHT31;67756;51.982;5.648;2023-09-08T11:57:11;32.5;44.2
78463;SHT31;67756;51.982;5.648;2023-09-08T11:59:40;33.1;43.6
78463;SHT31;67756;51.982;5.648;2023-09-08T12:02:09;34.0;42.0
78463;SHT31;67756;51.982;5.648;2023-09-08T12:04:39;34.8;39.0
78463;SHT31;67756;51.982;5.648;2023-09-08T12:07:12;35.3;38.3
78463;SHT31;67756;51.982;5.648;2023-09-08T12:09:43;35.7;38.7
78463;SHT31;67756;51.982;5.648;2023-09-08T12:12:13;36.1;37.7
78463;SHT31;67756;51.982;5.648;2023-09-08T12:14:43;36.5;37.5
78463;SHT31;67756;51.982;5.648;2023-09-08T12:17:11;36.8;36.5
78463;SHT31;67756;51.982;5.648;2023-09-08T12:19:43;37.1;35.8
78463;SHT31;67756;51.982;5.648;2023-09-08T12:22:12;37.4;36.6
78463;SHT31;67756;51.982;5.648;2023-09-08T12:24:57;37.6;34.3
78463;SHT31;67756;51.982;5.648;2023-09-08T12:27:28;37.8;34.5
78463;SHT31;67756;51.982;5.648;2023-09-08T12:29:58;37.9;34.8
78463;SHT31;67756;51.982;5.648;2023-09-08T12:32:31;38.1;33.5
78463;SHT31;67756;51.982;5.648;2023-09-08T12:35:02;38.3;33.5
78463;SHT31;67756;51.982;5.648;2023-09-08T12:37:33;38.5;33.0
78463;SHT31;67756;51.982;5.648;2023-09-08T12:40:03;38.6;33.0
78463;SHT31;67756;51.982;5.648;2023-09-08T12:42:32;38.7;33.8
78463;SHT31;67756;51.982;5.648;2023-09-08T12:45:01;38.8;33.4
78463;SHT31;67756;51.982;5.648;2023-09-08T12:47:29;39.0;33.5
78463;SHT31;67756;51.982;5.648;2023-09-08T12:49:58;39.2;32.0
78463;SHT31;67756;51.982;5.648;2023-09-08T12:52:26;39.4;31.8
78463;SHT31;67756;51.982;5.648;2023-09-08T12:54:55;39.5;31.5
78463;SHT31;67756;51.982;5.648;2023-09-08T12:57:23;39.6;32.6
78463;SHT31;67756;51.982;5.648;2023-09-08T12:59:52;39.7;32.4
78463;SHT31;67756;51.982;5.648;2023-09-08T13:02:21;39.8;31.7
78463;SHT31;67756;51.982;5.648;2023-09-08T13:04:49;39.9;31.8
78463;SHT31;67756;51.982;5.648;2023-09-08T13:07:19;40.0;32.2
78463;SHT31;67756;51.982;5.648;2023-09-08T13:09:48;40.0;31.5
78463;SHT31;67756;51.982;5.648;2023-09-08T13:12:17;40.1;31.0
78463;SHT31;67756;51.982;5.648;2023-09-08T13:14:45;40.2;32.6
78463;SHT31;67756;51.982;5.648;2023-09-08T13:17:14;40.3;31.2
78463;SHT31;67756;51.982;5.648;2023-09-08T13:19:44;40.4;31.0
78463;SHT31;67756;51.982;5.648;2023-09-08T13:22:13;40.6;31.5
78463;SHT31;67756;51.982;5.648;2023-09-08T13:24:44;40.8;31.7
78463;SHT31;67756;51.982;5.648;2023-09-08T13:27:12;41.0;31.0
78463;SHT31;67756;51.982;5.648;2023-09-08T13:29:43;41.2;30.6
78463;SHT31;67756;51.982;5.648;2023-09-08T13:32:12;41.4;29.9
78463;SHT31;67756;51.982;5.648;2023-09-08T13:34:41;41.5;30.1
78463;SHT31;67756;51.982;5.648;2023-09-08T13:37:10;41.5;30.8
78463;SHT31;67756;51.982;5.648;2023-09-08T13:39:40;41.6;30.0
78463;SHT31;67756;51.982;5.648;2023-09-08T13:42:09;41.7;29.2
78463;SHT31;67756;51.982;5.648;2023-09-08T13:44:38;41.8;28.8
78463;SHT31;67756;51.982;5.648;2023-09-08T13:47:06;41.9;29.0
78463;SHT31;67756;51.982;5.648;2023-09-08T13:49:36;42.0;29.8
78463;SHT31;67756;51.982;5.648;2023-09-08T13:52:05;42.1;28.8
78463;SHT31;67756;51.982;5.648;2023-09-08T13:54:34;42.2;29.2
78463;SHT31;67756;51.982;5.648;2023-09-08T13:57:03;42.2;29.0
78463;SHT31;67756;51.982;5.648;2023-09-08T13:59:32;42.3;28.8
78463;SHT31;67756;51.982;5.648;2023-09-08T14:02:00;42.3;28.2
78463;SHT31;67756;51.982;5.648;2023-09-08T14:04:30;42.4;29.0
78463;SHT31;67756;51.982;5.648;2023-09-08T14:06:58;42.4;29.1
78463;SHT31;67756;51.982;5.648;2023-09-08T14:09:27;42.5;29.7
78463;SHT31;67756;51.982;5.648;2023-09-08T14:11:55;42.6;28.9
78463;SHT31;67756;51.982;5.648;2023-09-08T14:14:24;42.7;28.6
78463;SHT31;67756;51.982;5.648;2023-09-08T14:16:53;42.8;28.6
78463;SHT31;67756;51.982;5.648;2023-09-08T14:19:21;43.0;28.0
78463;SHT31;67756;51.982;5.648;2023-09-08T14:21:50;43.1;27.2
78463;SHT31;67756;51.982;5.648;2023-09-08T14:24:21;43.2;27.2
78463;SHT31;67756;51.982;5.648;2023-09-08T14:26:49;43.3;27.6
78463;SHT31;67756;51.982;5.648;2023-09-08T14:29:21;43.3;26.8
78463;SHT31;67756;51.982;5.648;2023-09-08T14:31:50;43.3;27.5
78463;SHT31;67756;51.982;5.648;2023-09-08T14:34:19;43.3;27.2
78463;SHT31;67756;51.982;5.648;2023-09-08T14:36:48;43.3;27.2
78463;SHT31;67756;51.982;5.648;2023-09-08T14:39:16;43.4;26.8
78463;SHT31;67756;51.982;5.648;2023-09-08T14:41:47;43.4;27.0
78463;SHT31;67756;51.982;5.648;2023-09-08T14:44:16;43.5;26.8
78463;SHT31;67756;51.982;5.648;2023-09-08T14:46:47;43.6;27.9
78463;SHT31;67756;51.982;5.648;2023-09-08T14:49:15;43.6;27.6
78463;SHT31;67756;51.982;5.648;2023-09-08T14:51:44;43.7;26.6
78463;SHT31;67756;51.982;5.648;2023-09-08T14:54:12;43.8;26.5
78463;SHT31;67756;51.982;5.648;2023-09-08T14:56:41;43.9;26.7
78463;SHT31;67756;51.982;5.648;2023-09-08T14:59:10;43.9;26.1
78463;SHT31;67756;51.982;5.648;2023-09-08T15:01:38;43.9;26.5
78463;SHT31;67756;51.982;5.648;2023-09-08T15:04:09;43.9;26.4
78463;SHT31;67756;51.982;5.648;2023-09-08T15:06:38;43.9;27.0
78463;SHT31;67756;51.982;5.648;2023-09-08T15:09:06;43.8;26.8
78463;SHT31;67756;51.982;5.648;2023-09-08T15:11:35;43.8;27.6
78463;SHT31;67756;51.982;5.648;2023-09-08T15:14:04;43.8;27.2
78463;SHT31;67756;51.982;5.648;2023-09-08T15:16:33;43.7;27.2
78463;SHT31;67756;51.982;5.648;2023-09-08T15:19:01;43.6;26.6
78463;SHT31;67756;51.982;5.648;2023-09-08T15:21:30;43.6;27.0
78463;SHT31;67756;51.982;5.648;2023-09-08T15:23:59;43.5;27.4
78463;SHT31;67756;51.982;5.648;2023-09-08T15:26:28;43.4;26.3
78463;SHT31;67756;51.982;5.648;2023-09-08T15:28:58;43.4;26.5
78463;SHT31;67756;51.982;5.648;2023-09-08T15:31:27;43.4;26.5
78463;SHT31;67756;51.982;5.648;2023-09-08T15:33:56;43.3;27.0
78463;SHT31;67756;51.982;5.648;2023-09-08T15:36:24;43.3;26.7
78463;SHT31;67756;51.982;5.648;2023-09-08T15:38:53;43.4;26.8
78463;SHT31;67756;51.982;5.648;2023-09-08T15:41:21;43.4;26.7
78463;SHT31;67756;51.982;5.648;2023-09-08T15:43:51;43.2;26.8
78463;SHT31;67756;51.982;5.648;2023-09-08T15:46:19;42.9;27.2
78463;SHT31;67756;51.982;5.648;2023-09-08T15:48:48;42.6;26.8
78463;SHT31;67756;51.982;5.648;2023-09-08T15:51:17;42.2;27.8
78463;SHT31;67756;51.982;5.648;2023-09-08T15:53:46;41.7;28.6
78463;SHT31;67756;51.982;5.648;2023-09-08T15:56:14;41.2;28.8
78463;SHT31;67756;51.982;5.648;2023-09-08T15:58:45;40.8;29.7
78463;SHT31;67756;51.982;5.648;2023-09-08T16:01:13;40.3;30.3
78463;SHT31;67756;51.982;5.648;2023-09-08T16:03:42;39.9;31.5
78463;SHT31;67756;51.982;5.648;2023-09-08T16:06:11;39.5;31.2
78463;SHT31;67756;51.982;5.648;2023-09-08T16:08:40;39.3;32.9
78463;SHT31;67756;51.982;5.648;2023-09-08T16:11:08;39.1;31.5
78463;SHT31;67756;51.982;5.648;2023-09-08T16:13:37;38.9;32.3
78463;SHT31;67756;51.982;5.648;2023-09-08T16:16:07;38.6;32.9